Terminal Aerodrome Forecast
Issued by NWS Sioux Falls, SD

Home | Current Version | Previous Version | Text Only | Print | Product List | Glossary On
Versions: 1 2 3 4 5 6 7 8 9 10 11 12 13 14 15 16 17 18 19 20 21 22 23 24
000
FTUS43 KFSD 170522
TAFFSD
TAF
KFSD 170522Z 1706/1806 30012KT 6SM -SHRA BR BKN012 OVC040
     FM170700 31012KT P6SM BKN015
     FM171300 31012KT P6SM SCT010
     FM171900 32015G23KT P6SM FEW130
     FM172300 32011KT P6SM SKC=

USA.gov is the U.S. government's official web portal to all federal, state and local government web resources and services.